Inspiration — C6FM5 — position and weather

sailwx.info

Track history (hours):
 
Tides and Currents Weather Stations Pressure Air Temp Water Temp Dewpoint Dewpoint Depression Visibility Wind Speed Wind Dir Waves Ship Positions

Inspiration

Operator: Carnival Cruise Lines

Last reported at 2017-Sep-20 00:30 UTC. Time now 2017-Sep-20 00:34 UTC.
Position N 33°14' W 118°12'.

Type: Ship. MMSI: 309484000.

Date/timePositionNaut miles runAvg speedWind from/ knotsBaromVisibWave heightAir tempDewpointWater temp
2017-Sep-20 00:30N 33°14' W 118°12'5 9.9
2017-Sep-20 00:00N 33°18' W 118°15'5 9.0
2017-Sep-19 23:31N 33°21' W 118°19'0 0.3
2017-Sep-19 22:54N 33°21' W 118°19'0 0.0
2017-Sep-19 22:21N 33°21' W 118°19'0 0.0
2017-Sep-19 21:59N 33°21' W 118°19'0 0.0
2017-Sep-19 21:29N 33°21' W 118°19'0 0.0
2017-Sep-19 20:56N 33°21' W 118°19'0 0.0
2017-Sep-19 20:29N 33°21' W 118°19'0 0.0
2017-Sep-19 19:59N 33°21' W 118°19'0 0.0
2017-Sep-19 19:28N 33°21' W 118°19'0 0.1
2017-Sep-19 19:00N 33°21' W 118°19'0 0.1
2017-Sep-19 18:30N 33°21' W 118°19'0 0.0
2017-Sep-19 18:00N 33°21' W 118°19'0 0.0
2017-Sep-19 17:29N 33°21' W 118°19'0 0.0
2017-Sep-19 17:00N 33°21' W 118°19'0 0.0
2017-Sep-19 16:30N 33°21' W 118°19'0 0.0
2017-Sep-19 16:00N 33°21' W 118°19'0 0.0
2017-Sep-19 15:30N 33°21' W 118°19'0 0.0
2017-Sep-19 15:00N 33°21' W 118°19'0 0.1
2017-Sep-19 14:30N 33°21' W 118°19'1 1.6
2017-Sep-19 14:00N 33°21' W 118°18'3 6.9
2017-Sep-19 13:30N 33°17' W 118°16'4 7.3
2017-Sep-19 13:01N 33°14' W 118°16'4 7.2
2017-Sep-19 12:31N 33°10' W 118°16'4 7.4
2017-Sep-19 12:00N 33°07' W 118°15'4 7.4
2017-Sep-19 11:30N 33°03' W 118°13'4 7.5
2017-Sep-19 11:01N 33°00' W 118°10'4 7.6
2017-Sep-19 10:31N 32°57' W 118°07'4 8.0
2017-Sep-19 10:00N 32°54' W 118°04'3 6.8
2017-Sep-19 09:30N 32°51' W 118°02'4 7.2
2017-Sep-19 09:01N 32°48' W 117°60'3 6.5
2017-Sep-19 08:30N 32°47' W 117°56'3 6.5
2017-Sep-19 08:00N 32°50' W 117°54'4 7.4
2017-Sep-19 07:30N 32°53' W 117°56'4 7.1
2017-Sep-19 07:00N 32°57' W 117°57'4 7.1
2017-Sep-19 06:31N 33°00' W 117°58'4 7.3
2017-Sep-19 06:00N 33°04' W 117°60'4 7.2
2017-Sep-19 05:30N 33°07' W 118°01'4 7.1
2017-Sep-19 05:00N 33°10' W 118°02'3 7.0
2017-Sep-19 04:30N 33°14' W 118°04'4 7.0
2017-Sep-19 04:00N 33°17' W 118°05'4 7.0
2017-Sep-19 03:31N 33°20' W 118°07'5 9.5
2017-Sep-19 03:00N 33°25' W 118°09'510.9
2017-Sep-19 02:31N 33°30' W 118°11'511.0
2017-Sep-19 02:00N 33°35' W 118°13'510.5
2017-Sep-19 01:30N 33°40' W 118°12'4 9.2
2017-Sep-19 01:00N 33°45' W 118°11'1 0.7
2017-Sep-19 00:14N 33°45' W 118°11'0 0.0
2017-Sep-18 23:59N 33°45' W 118°11'0 0.0
2017-Sep-18 22:04N 33°45' W 118°11'0 0.0
2017-Sep-18 21:58N 33°45' W 118°11'0 0.0
2017-Sep-18 21:13N 33°45' W 118°11'0 0.0
2017-Sep-18 20:49N 33°45' W 118°11'0 0.0
2017-Sep-18 20:25N 33°45' W 118°11'0 0.0
2017-Sep-18 20:00N 33°45' W 118°11'0 0.0
2017-Sep-18 19:30N 33°45' W 118°11'0 0.0
2017-Sep-18 17:29N 33°45' W 118°11'0 0.0
2017-Sep-18 16:17N 33°45' W 118°11'0 0.0
2017-Sep-18 15:59N 33°45' W 118°11'0 0.0
2017-Sep-18 15:28N 33°45' W 118°11'0 0.0
2017-Sep-18 14:57N 33°45' W 118°11'0 0.0
2017-Sep-18 14:28N 33°45' W 118°11'0 0.0
2017-Sep-18 13:52N 33°45' W 118°11'0 0.0
2017-Sep-18 13:03N 33°45' W 118°11'0 0.0
2017-Sep-18 12:58N 33°45' W 118°11'0 0.6
2017-Sep-18 12:30N 33°45' W 118°11'1 2.4
2017-Sep-18 12:00N 33°44' W 118°11'5 9.0
2017-Sep-18 11:30N 33°39' W 118°10'3 7.1
2017-Sep-18 11:00N 33°36' W 118°10'4 7.5
2017-Sep-18 10:30N 33°32' W 118°08'4 7.5
2017-Sep-18 10:00N 33°29' W 118°07'4 7.5
2017-Sep-18 09:31N 33°25' W 118°05'4 7.7
2017-Sep-18 09:00N 33°21' W 118°04'4 7.7
2017-Sep-18 08:30N 33°18' W 118°02'4 7.8
2017-Sep-18 08:01N 33°14' W 118°00'3 6.9
2017-Sep-18 07:30N 33°11' W 117°59'4 7.6
2017-Sep-18 07:00N 33°07' W 117°57'4 7.5
2017-Sep-18 06:31N 33°04' W 117°56'4 7.4
2017-Sep-18 06:00N 33°00' W 117°54'4 7.5
2017-Sep-18 05:30N 32°57' W 117°53'4 7.9
2017-Sep-18 05:00N 32°53' W 117°51'4 7.9
2017-Sep-18 04:30N 32°49' W 117°50'4 7.6
2017-Sep-18 04:00N 32°46' W 117°48'4 7.8
2017-Sep-18 03:30N 32°42' W 117°46'4 7.4
2017-Sep-18 03:01N 32°39' W 117°45'4 7.8
2017-Sep-18 02:30N 32°35' W 117°43'4 8.3
2017-Sep-18 02:01N 32°31' W 117°42'4 8.2
2017-Sep-18 01:30N 32°27' W 117°40'4 8.0
2017-Sep-18 01:01N 32°23' W 117°39'4 8.1
2017-Sep-18 00:30N 32°19' W 117°38'4 8.3
2017-Sep-18 00:00N 32°16' W 117°36'4 8.3
2017-Sep-17 23:30N 32°12' W 117°34'4 7.6
2017-Sep-17 23:00N 32°08' W 117°32'9 6.8
2017-Sep-17 21:37N 32°00' W 117°26'3 7.1
2017-Sep-17 21:16N 32°00' W 117°23'512.9
2017-Sep-17 20:54N 31°60' W 117°18'20 5.5
2017-Sep-17 17:19N 31°51' W 117°39'6 9.0
2017-Sep-17 16:42N 31°51' W 117°45'310.7
2017-Sep-17 16:24N 31°50' W 117°49'410.1
2017-Sep-17 15:58N 31°50' W 117°54'3 7.5
2017-Sep-17 15:30N 31°50' W 117°58'4 7.9
2017-Sep-17 15:00N 31°50' W 118°03'4 7.5
2017-Sep-17 14:30N 31°48' W 118°07'712.6
2017-Sep-17 14:00N 31°42' W 118°06'241.1 300 / 101013.210.8 19.017.521.0
2017-Sep-17 13:56N 31°44' W 118°07'3 7.6
2017-Sep-17 13:30N 31°41' W 118°08'4 8.2
2017-Sep-17 13:00N 31°37' W 118°10'4 8.0
2017-Sep-17 12:30N 31°33' W 118°11'4 7.2
2017-Sep-17 11:56N 31°31' W 118°07'15 6.9
2017-Sep-17 09:42N 31°33' W 117°49'2 7.0
2017-Sep-17 09:29N 31°35' W 117°50'3 7.3
2017-Sep-17 09:00N 31°37' W 117°52'17 7.1
2017-Sep-17 06:39N 31°46' W 117°36'2 9.7
2017-Sep-17 06:27N 31°46' W 117°33'4 9.4
2017-Sep-17 05:59N 31°47' W 117°28'7 9.5
2017-Sep-17 05:17N 31°48' W 117°20'3 9.8
2017-Sep-17 05:00N 31°48' W 117°17'610.1
2017-Sep-17 04:23N 31°48' W 117°10'410.1
2017-Sep-17 03:59N 31°49' W 117°05'15 0.9
2017-Sep-16 11:12N 32°03' W 117°10'412.6
2017-Sep-16 10:51N 32°06' W 117°14'412.6
2017-Sep-16 10:30N 32°09' W 117°18'612.8
2017-Sep-16 10:00N 32°13' W 117°24'612.8
2017-Sep-16 09:30N 32°17' W 117°30'612.7
2017-Sep-16 09:01N 32°21' W 117°35'612.4
2017-Sep-16 08:30N 32°26' W 117°40'612.3
2017-Sep-16 08:00N 32°32' W 117°42'612.3
2017-Sep-16 07:30N 32°38' W 117°44'612.3
2017-Sep-16 07:00N 32°43' W 117°47'612.4
2017-Sep-16 06:30N 32°49' W 117°50'612.7
2017-Sep-16 06:00N 32°55' W 117°53'612.7
2017-Sep-16 05:31N 33°01' W 117°56'612.5
2017-Sep-16 05:00N 33°06' W 117°59'612.2
2017-Sep-16 04:30N 33°12' W 118°02'612.0
2017-Sep-16 04:00N 33°17' W 118°05'611.9
2017-Sep-16 03:30N 33°23' W 118°08'612.1
2017-Sep-16 03:00N 33°29' W 118°10'612.4
2017-Sep-16 02:30N 33°34' W 118°13'611.6
2017-Sep-16 02:00N 33°40' W 118°12'5 9.1
2017-Sep-16 01:30N 33°45' W 118°11'0 0.8
2017-Sep-16 00:59N 33°45' W 118°11'0 0.0
2017-Sep-15 22:52N 33°45' W 118°11'0 0.0
2017-Sep-15 22:25N 33°45' W 118°11'0 0.0
2017-Sep-15 21:56N 33°45' W 118°11'0 0.0
2017-Sep-15 21:11N 33°45' W 118°11'0 0.0
2017-Sep-15 20:55N 33°45' W 118°11'0 0.0
2017-Sep-15 19:31N 33°45' W 118°11'0 0.0
2017-Sep-15 19:25N 33°45' W 118°11'0 0.0
2017-Sep-15 18:58N 33°45' W 118°11'0 0.0
2017-Sep-15 18:30N 33°45' W 118°11'0 0.0
2017-Sep-15 18:00N 33°45' W 118°11'0 0.0
2017-Sep-15 14:41N 33°45' W 118°11'0 0.0
2017-Sep-15 14:23N 33°45' W 118°11'0 0.0
2017-Sep-15 13:59N 33°45' W 118°11'0 0.0
2017-Sep-15 13:28N 33°45' W 118°11'0 0.0
2017-Sep-15 12:58N 33°45' W 118°11'0 0.1
2017-Sep-15 12:30N 33°45' W 118°11'1 1.6
2017-Sep-15 12:00N 33°44' W 118°11'5 9.3
2017-Sep-15 11:31N 33°40' W 118°11'4 8.0
2017-Sep-15 11:01N 33°36' W 118°09'4 7.8
2017-Sep-15 10:30N 33°32' W 118°08'4 7.6
2017-Sep-15 10:00N 33°28' W 118°07'4 7.6
2017-Sep-15 09:31N 33°25' W 118°05'4 7.7
2017-Sep-15 09:01N 33°21' W 118°03'4 7.6
2017-Sep-15 08:30N 33°18' W 118°02'3 6.7
2017-Sep-15 08:01N 33°15' W 118°01'4 7.6
2017-Sep-15 07:31N 33°11' W 117°59'4 8.1
2017-Sep-15 07:01N 33°07' W 117°57'4 8.0
2017-Sep-15 06:31N 33°03' W 117°56'4 7.8
2017-Sep-15 06:00N 32°60' W 117°54'4 7.7
2017-Sep-15 05:31N 32°56' W 117°53'4 7.7
2017-Sep-15 05:01N 32°53' W 117°51'4 8.0
2017-Sep-15 04:30N 32°49' W 117°49'4 8.0
2017-Sep-15 04:01N 32°45' W 117°48'4 7.9
2017-Sep-15 03:31N 32°41' W 117°46'4 7.9
2017-Sep-15 03:00N 32°38' W 117°45'4 7.5
2017-Sep-15 02:30N 32°34' W 117°43'4 7.4
2017-Sep-15 02:00N 32°31' W 117°42'5307.4
2017-Sep-15 02:00N 32°30' W 117°36'510.0 310 / 151013.210.8 20.016.921.0
2017-Sep-15 01:30N 32°27' W 117°41'4 7.6
2017-Sep-15 01:00N 32°23' W 117°40'4 7.3
2017-Sep-15 00:30N 32°20' W 117°38'4 7.4
2017-Sep-15 00:00N 32°17' W 117°41'4 7.7
2017-Sep-14 23:31N 32°15' W 117°44'4 7.9
2017-Sep-14 23:00N 32°11' W 117°47'4 7.1
2017-Sep-14 22:31N 32°08' W 117°49'4 7.3
2017-Sep-14 22:00N 32°05' W 117°52'4 7.5
2017-Sep-14 21:31N 32°03' W 117°55'4 7.4
2017-Sep-14 20:57N 31°59' W 117°58'3 7.6
2017-Sep-14 20:29N 31°56' W 117°60'6 7.7
2017-Sep-14 19:45N 31°51' W 118°03'2 8.3
2017-Sep-14 19:31N 31°49' W 118°04'6 8.1
2017-Sep-14 18:46N 31°45' W 117°59'3 4.4
2017-Sep-14 18:00N 31°42' W 118°00'181.4 330 / 101015.210.8 20.016.920.0
2017-Sep-14 17:58N 31°42' W 118°02'4 9.3
2017-Sep-14 17:30N 31°46' W 118°05'5 8.9
2017-Sep-14 16:58N 31°49' W 118°09'5 8.5
2017-Sep-14 16:23N 31°45' W 118°12'4 9.4
2017-Sep-14 16:00N 31°41' W 118°11'5 9.4
2017-Sep-14 15:25N 31°36' W 118°10'66 2.4
2017-Sep-13 12:10N 31°56' W 116°56'4 8.9
2017-Sep-13 11:44N 31°57' W 116°60'2 9.6
2017-Sep-13 11:30N 31°58' W 117°02'5 9.3
2017-Sep-13 10:58N 32°00' W 117°08'5 9.2
2017-Sep-13 10:27N 32°02' W 117°13'6 8.9
2017-Sep-13 09:46N 32°03' W 117°20'3 9.2
2017-Sep-13 09:27N 32°04' W 117°23'4 9.1
2017-Sep-13 09:00N 32°05' W 117°28'5 9.0
2017-Sep-13 08:30N 32°06' W 117°33'4 8.9
2017-Sep-13 08:00N 32°10' W 117°36'4 9.0
2017-Sep-13 07:30N 32°14' W 117°39'4 8.8
2017-Sep-13 07:00N 32°18' W 117°42'4 8.7
2017-Sep-13 06:30N 32°22' W 117°44'4 8.6
2017-Sep-13 06:00N 32°26' W 117°45'5 9.6
2017-Sep-13 05:30N 32°31' W 117°46'5 9.9
2017-Sep-13 05:00N 32°35' W 117°48'510.1
2017-Sep-13 04:31N 32°39' W 117°51'510.3
2017-Sep-13 04:00N 32°44' W 117°54'510.2
2017-Sep-13 03:30N 32°49' W 117°57'510.4
2017-Sep-13 03:00N 32°53' W 117°59'510.7
2017-Sep-13 02:30N 32°58' W 118°02'510.4
2017-Sep-13 02:00N 33°03' W 118°05'510.3
2017-Sep-13 01:30N 33°07' W 118°08'510.4
2017-Sep-13 01:00N 33°12' W 118°11'510.3
2017-Sep-13 00:30N 33°16' W 118°14'5 9.5
2017-Sep-13 00:00N 33°20' W 118°17'2 3.2
2017-Sep-12 23:28N 33°21' W 118°19'0 0.0
2017-Sep-12 22:51N 33°21' W 118°19'0 0.0
2017-Sep-12 22:21N 33°21' W 118°19'0 0.1
2017-Sep-12 22:00N 33°21' W 118°19'0 0.0
2017-Sep-12 21:24N 33°21' W 118°19'0 0.1
2017-Sep-12 20:41N 33°21' W 118°19'0 0.3
2017-Sep-12 20:29N 33°21' W 118°19'0 0.0
2017-Sep-12 19:56N 33°21' W 118°19'0 0.0
2017-Sep-12 19:29N 33°21' W 118°19'0 0.1
2017-Sep-12 18:59N 33°21' W 118°19'0 0.0
2017-Sep-12 18:28N 33°21' W 118°19'0 0.0
2017-Sep-12 17:55N 33°21' W 118°19'0 0.0
2017-Sep-12 17:25N 33°21' W 118°19'0 0.0
2017-Sep-12 16:55N 33°21' W 118°19'0 0.0
2017-Sep-12 16:21N 33°21' W 118°19'0 0.1
2017-Sep-12 16:00N 33°21' W 118°19'0 0.0
2017-Sep-12 15:30N 33°21' W 118°19'0 0.1
2017-Sep-12 15:00N 33°21' W 118°19'0 0.1
2017-Sep-12 14:31N 33°21' W 118°19'0 0.2
2017-Sep-12 14:00N 33°21' W 118°19'3 6.5
2017-Sep-12 13:30N 33°18' W 118°17'4 8.4
2017-Sep-12 13:00N 33°14' W 118°16'4 7.9
2017-Sep-12 12:30N 33°10' W 118°16'4 7.6
2017-Sep-12 12:00N 33°06' W 118°15'4 7.6
2017-Sep-12 11:30N 33°03' W 118°13'4 7.5
2017-Sep-12 11:00N 33°00' W 118°10'4 7.6
2017-Sep-12 10:30N 32°57' W 118°07'4 7.6
2017-Sep-12 10:01N 32°54' W 118°05'4 7.8
2017-Sep-12 09:31N 32°51' W 118°02'4 7.6
2017-Sep-12 09:00N 32°48' W 117°59'3 6.8
2017-Sep-12 08:30N 32°46' W 117°56'3 6.7
2017-Sep-12 08:00N 32°48' W 117°53'3 6.9
2017-Sep-12 07:30N 32°51' W 117°54'4 7.1
2017-Sep-12 07:00N 32°55' W 117°56'4 7.2
2017-Sep-12 06:30N 32°58' W 117°57'4 7.3
2017-Sep-12 06:00N 33°01' W 117°59'4 7.4
2017-Sep-12 05:30N 33°05' W 118°00'4 7.3
2017-Sep-12 05:00N 33°08' W 118°02'4 8.7
2017-Sep-12 04:30N 33°12' W 118°03'5 9.9
2017-Sep-12 04:00N 33°17' W 118°06'5 9.9
2017-Sep-12 03:30N 33°22' W 118°08'510.3
2017-Sep-12 03:00N 33°27' W 118°09'510.5
2017-Sep-12 02:30N 33°31' W 118°12'510.3
2017-Sep-12 02:00N 33°36' W 118°13'5 9.8
2017-Sep-12 01:30N 33°41' W 118°12'4 7.3
2017-Sep-12 00:59N 33°45' W 118°11'0 0.1
2017-Sep-12 00:29N 33°45' W 118°11'0 0.0
2017-Sep-11 23:59N 33°45' W 118°11'0 0.0
2017-Sep-11 23:29N 33°45' W 118°11'0 0.0
2017-Sep-11 22:58N 33°45' W 118°11'0 0.0
2017-Sep-11 22:25N 33°45' W 118°11'0 0.0
2017-Sep-11 21:58N 33°45' W 118°11'0 0.0
2017-Sep-11 21:28N 33°45' W 118°11'0 0.0
2017-Sep-11 21:00N 33°45' W 118°11'0 0.0
2017-Sep-11 20:30N 33°45' W 118°11'0 0.0
2017-Sep-11 20:00N 33°45' W 118°11'0 0.0
2017-Sep-11 19:30N 33°45' W 118°11'0 0.0
2017-Sep-11 19:00N 33°45' W 118°11'0 0.0
2017-Sep-11 18:29N 33°45' W 118°11'0 0.0
2017-Sep-11 17:59N 33°45' W 118°11'0 0.0
2017-Sep-11 17:29N 33°45' W 118°11'0 0.0
2017-Sep-11 16:50N 33°45' W 118°11'0 0.0
2017-Sep-11 16:29N 33°45' W 118°11'0 0.0
2017-Sep-11 15:58N 33°45' W 118°11'0 0.0
2017-Sep-11 15:28N 33°45' W 118°11'0 0.0
2017-Sep-11 14:58N 33°45' W 118°11'0 0.0
2017-Sep-11 14:28N 33°45' W 118°11'0 0.0
2017-Sep-11 14:00N 33°45' W 118°11'0 0.0
2017-Sep-11 13:21N 33°45' W 118°11'0 0.0
2017-Sep-11 13:00N 33°45' W 118°11'0 0.3
2017-Sep-11 12:30N 33°45' W 118°11'1 1.8
2017-Sep-11 12:00N 33°44' W 118°11'4 8.9
2017-Sep-11 11:30N 33°40' W 118°11'4 8.2
2017-Sep-11 11:00N 33°36' W 118°10'3 6.9
2017-Sep-11 10:30N 33°32' W 118°08'4 7.1
2017-Sep-11 10:00N 33°29' W 118°07'3 7.0
2017-Sep-11 09:30N 33°26' W 118°05'4 7.1
2017-Sep-11 09:00N 33°22' W 118°04'4 7.2
2017-Sep-11 08:30N 33°19' W 118°03'3 6.9
2017-Sep-11 08:00N 33°16' W 118°01'4 7.6
2017-Sep-11 07:30N 33°12' W 117°60'4 8.0
2017-Sep-11 07:00N 33°08' W 117°58'4 8.4
2017-Sep-11 06:30N 33°05' W 117°56'4 8.2
2017-Sep-11 06:00N 33°01' W 117°54'4 8.2
2017-Sep-11 05:30N 32°57' W 117°53'4 8.2
2017-Sep-11 05:00N 32°53' W 117°51'4 7.9
2017-Sep-11 04:30N 32°49' W 117°50'4 7.8
2017-Sep-11 04:00N 32°46' W 117°48'4 8.1
2017-Sep-11 03:30N 32°42' W 117°46'4 8.0
2017-Sep-11 03:00N 32°38' W 117°45'4 7.6
2017-Sep-11 02:30N 32°34' W 117°43'4 7.6
2017-Sep-11 02:00N 32°31' W 117°42'4 7.6
2017-Sep-11 01:30N 32°27' W 117°41'4 7.5
2017-Sep-11 01:00N 32°24' W 117°39'4 7.6
2017-Sep-11 00:30N 32°20' W 117°38'4 7.6
2017-Sep-11 00:00N 32°17' W 117°35'4 8.7
2017-Sep-10 23:30N 32°15' W 117°30'4 7.2
2017-Sep-10 23:00N 32°12' W 117°28'3 6.9
2017-Sep-10 22:30N 32°09' W 117°27'3 6.7
2017-Sep-10 22:00N 32°06' W 117°24'3 6.2
2017-Sep-10 21:30N 32°04' W 117°22'3 6.6
2017-Sep-10 21:00N 32°02' W 117°19'3 6.7
2017-Sep-10 20:30N 31°59' W 117°16'3 6.8
2017-Sep-10 20:00N 31°56' W 117°14'3 6.1
2017-Sep-10 19:30N 31°53' W 117°14'4 7.1
2017-Sep-10 19:00N 31°52' W 117°18'4 7.9
2017-Sep-10 18:30N 31°52' W 117°22'510.5
2017-Sep-10 18:00N 31°52' W 117°28'714.9
2017-Sep-10 17:30N 31°52' W 117°37'714.7
2017-Sep-10 17:00N 31°52' W 117°46'713.5
2017-Sep-10 16:30N 31°51' W 117°54'4 8.2
2017-Sep-10 16:00N 31°51' W 117°58'4 7.8
2017-Sep-10 15:30N 31°50' W 118°03'4 7.8
2017-Sep-10 15:00N 31°47' W 118°05'8 7.5
2017-Sep-10 14:00N 31°40' W 118°08'4270.7
2017-Sep-10 14:00N 31°36' W 118°06'3 7.1 330 / 121013.2 5.4 20.018.521.0
2017-Sep-10 13:30N 31°36' W 118°10'4 7.1
2017-Sep-10 13:00N 31°33' W 118°11'3 6.7
2017-Sep-10 12:30N 31°31' W 118°08'3 7.0
2017-Sep-10 12:00N 31°31' W 118°04'3 6.7
2017-Sep-10 11:30N 31°31' W 117°60'3 6.9
2017-Sep-10 11:00N 31°31' W 117°56'3 7.0
2017-Sep-10 10:30N 31°31' W 117°52'3 6.9
2017-Sep-10 10:00N 31°33' W 117°49'4 7.4
2017-Sep-10 09:30N 31°37' W 117°51'4 7.5
2017-Sep-10 09:00N 31°40' W 117°54'4 7.1
2017-Sep-10 08:30N 31°43' W 117°55'4 7.7
2017-Sep-10 08:00N 31°45' W 117°51'5 9.5
2017-Sep-10 07:30N 31°45' W 117°46'5 9.4
2017-Sep-10 07:00N 31°46' W 117°40'5 9.2
2017-Sep-10 06:30N 31°46' W 117°35'4 8.7
2017-Sep-10 06:00N 31°47' W 117°30'5 9.0
2017-Sep-10 05:30N 31°47' W 117°24'5 9.5
2017-Sep-10 05:00N 31°48' W 117°19'5 9.1
2017-Sep-10 04:30N 31°48' W 117°13'5 9.2
2017-Sep-10 04:00N 31°49' W 117°08'5 9.3
2017-Sep-10 03:30N 31°49' W 117°02'5 9.5
2017-Sep-10 02:59N 31°50' W 116°57'510.0
2017-Sep-10 02:30N 31°50' W 116°51'510.2
2017-Sep-10 01:59N 31°50' W 116°45'5 9.8
2017-Sep-10 01:30N 31°50' W 116°39'  
Track history (hours):
 
Tides and Currents Weather Stations Pressure Air Temp Water Temp Dewpoint Dewpoint Depression Visibility Wind Speed Wind Dir Waves Ship Positions

Inspiration

Operator: Carnival Cruise Lines

Last reported at 2017-Sep-20 00:30 UTC. Time now 2017-Sep-20 00:34 UTC.
Position N 33°14' W 118°12'.

Type: Ship. MMSI: 309484000.

Date/timePositionNaut miles runAvg speedWind from/ knotsBaromVisibWave heightAir tempDewpointWater temp
2017-Sep-20 00:30N 33°14' W 118°12'5 9.9
2017-Sep-20 00:00N 33°18' W 118°15'5 9.0
2017-Sep-19 23:31N 33°21' W 118°19'0 0.3
2017-Sep-19 22:54N 33°21' W 118°19'0 0.0
2017-Sep-19 22:21N 33°21' W 118°19'0 0.0
2017-Sep-19 21:59N 33°21' W 118°19'0 0.0
2017-Sep-19 21:29N 33°21' W 118°19'0 0.0
2017-Sep-19 20:56N 33°21' W 118°19'0 0.0
2017-Sep-19 20:29N 33°21' W 118°19'0 0.0
2017-Sep-19 19:59N 33°21' W 118°19'0 0.0
2017-Sep-19 19:28N 33°21' W 118°19'0 0.1
2017-Sep-19 19:00N 33°21' W 118°19'0 0.1
2017-Sep-19 18:30N 33°21' W 118°19'0 0.0
2017-Sep-19 18:00N 33°21' W 118°19'0 0.0
2017-Sep-19 17:29N 33°21' W 118°19'0 0.0
2017-Sep-19 17:00N 33°21' W 118°19'0 0.0
2017-Sep-19 16:30N 33°21' W 118°19'0 0.0
2017-Sep-19 16:00N 33°21' W 118°19'0 0.0
2017-Sep-19 15:30N 33°21' W 118°19'0 0.0
2017-Sep-19 15:00N 33°21' W 118°19'0 0.1
2017-Sep-19 14:30N 33°21' W 118°19'1 1.6
2017-Sep-19 14:00N 33°21' W 118°18'3 6.9
2017-Sep-19 13:30N 33°17' W 118°16'4 7.3
2017-Sep-19 13:01N 33°14' W 118°16'4 7.2
2017-Sep-19 12:31N 33°10' W 118°16'4 7.4
2017-Sep-19 12:00N 33°07' W 118°15'4 7.4
2017-Sep-19 11:30N 33°03' W 118°13'4 7.5
2017-Sep-19 11:01N 33°00' W 118°10'4 7.6
2017-Sep-19 10:31N 32°57' W 118°07'4 8.0
2017-Sep-19 10:00N 32°54' W 118°04'3 6.8
2017-Sep-19 09:30N 32°51' W 118°02'4 7.2
2017-Sep-19 09:01N 32°48' W 117°60'3 6.5
2017-Sep-19 08:30N 32°47' W 117°56'3 6.5
2017-Sep-19 08:00N 32°50' W 117°54'4 7.4
2017-Sep-19 07:30N 32°53' W 117°56'4 7.1
2017-Sep-19 07:00N 32°57' W 117°57'4 7.1
2017-Sep-19 06:31N 33°00' W 117°58'4 7.3
2017-Sep-19 06:00N 33°04' W 117°60'4 7.2
2017-Sep-19 05:30N 33°07' W 118°01'4 7.1
2017-Sep-19 05:00N 33°10' W 118°02'3 7.0
2017-Sep-19 04:30N 33°14' W 118°04'4 7.0
2017-Sep-19 04:00N 33°17' W 118°05'4 7.0
2017-Sep-19 03:31N 33°20' W 118°07'5 9.5
2017-Sep-19 03:00N 33°25' W 118°09'510.9
2017-Sep-19 02:31N 33°30' W 118°11'511.0
2017-Sep-19 02:00N 33°35' W 118°13'510.5
2017-Sep-19 01:30N 33°40' W 118°12'4 9.2
2017-Sep-19 01:00N 33°45' W 118°11'1 0.7
2017-Sep-19 00:14N 33°45' W 118°11'0 0.0
2017-Sep-18 23:59N 33°45' W 118°11'0 0.0
2017-Sep-18 22:04N 33°45' W 118°11'0 0.0
2017-Sep-18 21:58N 33°45' W 118°11'0 0.0
2017-Sep-18 21:13N 33°45' W 118°11'0 0.0
2017-Sep-18 20:49N 33°45' W 118°11'0 0.0
2017-Sep-18 20:25N 33°45' W 118°11'0 0.0
2017-Sep-18 20:00N 33°45' W 118°11'0 0.0
2017-Sep-18 19:30N 33°45' W 118°11'0 0.0
2017-Sep-18 17:29N 33°45' W 118°11'0 0.0
2017-Sep-18 16:17N 33°45' W 118°11'0 0.0
2017-Sep-18 15:59N 33°45' W 118°11'0 0.0
2017-Sep-18 15:28N 33°45' W 118°11'0 0.0
2017-Sep-18 14:57N 33°45' W 118°11'0 0.0
2017-Sep-18 14:28N 33°45' W 118°11'0 0.0
2017-Sep-18 13:52N 33°45' W 118°11'0 0.0
2017-Sep-18 13:03N 33°45' W 118°11'0 0.0
2017-Sep-18 12:58N 33°45' W 118°11'0 0.6
2017-Sep-18 12:30N 33°45' W 118°11'1 2.4
2017-Sep-18 12:00N 33°44' W 118°11'5 9.0
2017-Sep-18 11:30N 33°39' W 118°10'3 7.1
2017-Sep-18 11:00N 33°36' W 118°10'4 7.5
2017-Sep-18 10:30N 33°32' W 118°08'4 7.5
2017-Sep-18 10:00N 33°29' W 118°07'4 7.5
2017-Sep-18 09:31N 33°25' W 118°05'4 7.7
2017-Sep-18 09:00N 33°21' W 118°04'4 7.7
2017-Sep-18 08:30N 33°18' W 118°02'4 7.8
2017-Sep-18 08:01N 33°14' W 118°00'3 6.9
2017-Sep-18 07:30N 33°11' W 117°59'4 7.6
2017-Sep-18 07:00N 33°07' W 117°57'4 7.5
2017-Sep-18 06:31N 33°04' W 117°56'4 7.4
2017-Sep-18 06:00N 33°00' W 117°54'4 7.5
2017-Sep-18 05:30N 32°57' W 117°53'4 7.9
2017-Sep-18 05:00N 32°53' W 117°51'4 7.9
2017-Sep-18 04:30N 32°49' W 117°50'4 7.6
2017-Sep-18 04:00N 32°46' W 117°48'4 7.8
2017-Sep-18 03:30N 32°42' W 117°46'4 7.4
2017-Sep-18 03:01N 32°39' W 117°45'4 7.8
2017-Sep-18 02:30N 32°35' W 117°43'4 8.3
2017-Sep-18 02:01N 32°31' W 117°42'4 8.2
2017-Sep-18 01:30N 32°27' W 117°40'4 8.0
2017-Sep-18 01:01N 32°23' W 117°39'4 8.1
2017-Sep-18 00:30N 32°19' W 117°38'4 8.3
2017-Sep-18 00:00N 32°16' W 117°36'4 8.3
2017-Sep-17 23:30N 32°12' W 117°34'4 7.6
2017-Sep-17 23:00N 32°08' W 117°32'9 6.8
2017-Sep-17 21:37N 32°00' W 117°26'3 7.1
2017-Sep-17 21:16N 32°00' W 117°23'512.9
2017-Sep-17 20:54N 31°60' W 117°18'20 5.5
2017-Sep-17 17:19N 31°51' W 117°39'6 9.0
2017-Sep-17 16:42N 31°51' W 117°45'310.7
2017-Sep-17 16:24N 31°50' W 117°49'410.1
2017-Sep-17 15:58N 31°50' W 117°54'3 7.5
2017-Sep-17 15:30N 31°50' W 117°58'4 7.9
2017-Sep-17 15:00N 31°50' W 118°03'4 7.5
2017-Sep-17 14:30N 31°48' W 118°07'712.6
2017-Sep-17 14:00N 31°42' W 118°06'241.1 300 / 101013.210.8 19.017.521.0
2017-Sep-17 13:56N 31°44' W 118°07'3 7.6
2017-Sep-17 13:30N 31°41' W 118°08'4 8.2
2017-Sep-17 13:00N 31°37' W 118°10'4 8.0
2017-Sep-17 12:30N 31°33' W 118°11'4 7.2
2017-Sep-17 11:56N 31°31' W 118°07'15 6.9
2017-Sep-17 09:42N 31°33' W 117°49'2 7.0
2017-Sep-17 09:29N 31°35' W 117°50'3 7.3
2017-Sep-17 09:00N 31°37' W 117°52'17 7.1
2017-Sep-17 06:39N 31°46' W 117°36'2 9.7
2017-Sep-17 06:27N 31°46' W 117°33'4 9.4
2017-Sep-17 05:59N 31°47' W 117°28'7 9.5
2017-Sep-17 05:17N 31°48' W 117°20'3 9.8
2017-Sep-17 05:00N 31°48' W 117°17'610.1
2017-Sep-17 04:23N 31°48' W 117°10'410.1
2017-Sep-17 03:59N 31°49' W 117°05'15 0.9
2017-Sep-16 11:12N 32°03' W 117°10'412.6
2017-Sep-16 10:51N 32°06' W 117°14'412.6
2017-Sep-16 10:30N 32°09' W 117°18'612.8
2017-Sep-16 10:00N 32°13' W 117°24'612.8
2017-Sep-16 09:30N 32°17' W 117°30'612.7
2017-Sep-16 09:01N 32°21' W 117°35'612.4
2017-Sep-16 08:30N 32°26' W 117°40'612.3
2017-Sep-16 08:00N 32°32' W 117°42'612.3
2017-Sep-16 07:30N 32°38' W 117°44'612.3
2017-Sep-16 07:00N 32°43' W 117°47'612.4
2017-Sep-16 06:30N 32°49' W 117°50'612.7
2017-Sep-16 06:00N 32°55' W 117°53'612.7
2017-Sep-16 05:31N 33°01' W 117°56'612.5
2017-Sep-16 05:00N 33°06' W 117°59'612.2
2017-Sep-16 04:30N 33°12' W 118°02'612.0
2017-Sep-16 04:00N 33°17' W 118°05'611.9
2017-Sep-16 03:30N 33°23' W 118°08'612.1
2017-Sep-16 03:00N 33°29' W 118°10'612.4
2017-Sep-16 02:30N 33°34' W 118°13'611.6
2017-Sep-16 02:00N 33°40' W 118°12'5 9.1
2017-Sep-16 01:30N 33°45' W 118°11'0 0.8
2017-Sep-16 00:59N 33°45' W 118°11'0 0.0
2017-Sep-15 22:52N 33°45' W 118°11'0 0.0
2017-Sep-15 22:25N 33°45' W 118°11'0 0.0
2017-Sep-15 21:56N 33°45' W 118°11'0 0.0
2017-Sep-15 21:11N 33°45' W 118°11'0 0.0
2017-Sep-15 20:55N 33°45' W 118°11'0 0.0
2017-Sep-15 19:31N 33°45' W 118°11'0 0.0
2017-Sep-15 19:25N 33°45' W 118°11'0 0.0
2017-Sep-15 18:58N 33°45' W 118°11'0 0.0
2017-Sep-15 18:30N 33°45' W 118°11'0 0.0
2017-Sep-15 18:00N 33°45' W 118°11'0 0.0
2017-Sep-15 14:41N 33°45' W 118°11'0 0.0
2017-Sep-15 14:23N 33°45' W 118°11'0 0.0
2017-Sep-15 13:59N 33°45' W 118°11'0 0.0
2017-Sep-15 13:28N 33°45' W 118°11'0 0.0
2017-Sep-15 12:58N 33°45' W 118°11'0 0.1
2017-Sep-15 12:30N 33°45' W 118°11'1 1.6
2017-Sep-15 12:00N 33°44' W 118°11'5 9.3
2017-Sep-15 11:31N 33°40' W 118°11'4 8.0
2017-Sep-15 11:01N 33°36' W 118°09'4 7.8
2017-Sep-15 10:30N 33°32' W 118°08'4 7.6
2017-Sep-15 10:00N 33°28' W 118°07'4 7.6
2017-Sep-15 09:31N 33°25' W 118°05'4 7.7
2017-Sep-15 09:01N 33°21' W 118°03'4 7.6
2017-Sep-15 08:30N 33°18' W 118°02'3 6.7
2017-Sep-15 08:01N 33°15' W 118°01'4 7.6
2017-Sep-15 07:31N 33°11' W 117°59'4 8.1
2017-Sep-15 07:01N 33°07' W 117°57'4 8.0
2017-Sep-15 06:31N 33°03' W 117°56'4 7.8
2017-Sep-15 06:00N 32°60' W 117°54'4 7.7
2017-Sep-15 05:31N 32°56' W 117°53'4 7.7
2017-Sep-15 05:01N 32°53' W 117°51'4 8.0
2017-Sep-15 04:30N 32°49' W 117°49'4 8.0
2017-Sep-15 04:01N 32°45' W 117°48'4 7.9
2017-Sep-15 03:31N 32°41' W 117°46'4 7.9
2017-Sep-15 03:00N 32°38' W 117°45'4 7.5
2017-Sep-15 02:30N 32°34' W 117°43'4 7.4
2017-Sep-15 02:00N 32°31' W 117°42'5307.4
2017-Sep-15 02:00N 32°30' W 117°36'510.0 310 / 151013.210.8 20.016.921.0
2017-Sep-15 01:30N 32°27' W 117°41'4 7.6
2017-Sep-15 01:00N 32°23' W 117°40'4 7.3
2017-Sep-15 00:30N 32°20' W 117°38'4 7.4
2017-Sep-15 00:00N 32°17' W 117°41'4 7.7
2017-Sep-14 23:31N 32°15' W 117°44'4 7.9
2017-Sep-14 23:00N 32°11' W 117°47'4 7.1
2017-Sep-14 22:31N 32°08' W 117°49'4 7.3
2017-Sep-14 22:00N 32°05' W 117°52'4 7.5
2017-Sep-14 21:31N 32°03' W 117°55'4 7.4
2017-Sep-14 20:57N 31°59' W 117°58'3 7.6
2017-Sep-14 20:29N 31°56' W 117°60'6 7.7
2017-Sep-14 19:45N 31°51' W 118°03'2 8.3
2017-Sep-14 19:31N 31°49' W 118°04'6 8.1
2017-Sep-14 18:46N 31°45' W 117°59'3 4.4
2017-Sep-14 18:00N 31°42' W 118°00'181.4 330 / 101015.210.8 20.016.920.0
2017-Sep-14 17:58N 31°42' W 118°02'4 9.3
2017-Sep-14 17:30N 31°46' W 118°05'5 8.9
2017-Sep-14 16:58N 31°49' W 118°09'5 8.5
2017-Sep-14 16:23N 31°45' W 118°12'4 9.4
2017-Sep-14 16:00N 31°41' W 118°11'5 9.4
2017-Sep-14 15:25N 31°36' W 118°10'66 2.4
2017-Sep-13 12:10N 31°56' W 116°56'4 8.9
2017-Sep-13 11:44N 31°57' W 116°60'2 9.6
2017-Sep-13 11:30N 31°58' W 117°02'5 9.3
2017-Sep-13 10:58N 32°00' W 117°08'5 9.2
2017-Sep-13 10:27N 32°02' W 117°13'6 8.9
2017-Sep-13 09:46N 32°03' W 117°20'3 9.2
2017-Sep-13 09:27N 32°04' W 117°23'4 9.1
2017-Sep-13 09:00N 32°05' W 117°28'5 9.0
2017-Sep-13 08:30N 32°06' W 117°33'4 8.9
2017-Sep-13 08:00N 32°10' W 117°36'4 9.0
2017-Sep-13 07:30N 32°14' W 117°39'4 8.8
2017-Sep-13 07:00N 32°18' W 117°42'4 8.7
2017-Sep-13 06:30N 32°22' W 117°44'4 8.6
2017-Sep-13 06:00N 32°26' W 117°45'5 9.6
2017-Sep-13 05:30N 32°31' W 117°46'5 9.9
2017-Sep-13 05:00N 32°35' W 117°48'510.1
2017-Sep-13 04:31N 32°39' W 117°51'510.3
2017-Sep-13 04:00N 32°44' W 117°54'510.2
2017-Sep-13 03:30N 32°49' W 117°57'510.4
2017-Sep-13 03:00N 32°53' W 117°59'510.7
2017-Sep-13 02:30N 32°58' W 118°02'510.4
2017-Sep-13 02:00N 33°03' W 118°05'510.3
2017-Sep-13 01:30N 33°07' W 118°08'510.4
2017-Sep-13 01:00N 33°12' W 118°11'510.3
2017-Sep-13 00:30N 33°16' W 118°14'5 9.5
2017-Sep-13 00:00N 33°20' W 118°17'2 3.2
2017-Sep-12 23:28N 33°21' W 118°19'0 0.0
2017-Sep-12 22:51N 33°21' W 118°19'0 0.0
2017-Sep-12 22:21N 33°21' W 118°19'0 0.1
2017-Sep-12 22:00N 33°21' W 118°19'0 0.0
2017-Sep-12 21:24N 33°21' W 118°19'0 0.1
2017-Sep-12 20:41N 33°21' W 118°19'0 0.3
2017-Sep-12 20:29N 33°21' W 118°19'0 0.0
2017-Sep-12 19:56N 33°21' W 118°19'0 0.0
2017-Sep-12 19:29N 33°21' W 118°19'0 0.1
2017-Sep-12 18:59N 33°21' W 118°19'0 0.0
2017-Sep-12 18:28N 33°21' W 118°19'0 0.0
2017-Sep-12 17:55N 33°21' W 118°19'0 0.0
2017-Sep-12 17:25N 33°21' W 118°19'0 0.0
2017-Sep-12 16:55N 33°21' W 118°19'0 0.0
2017-Sep-12 16:21N 33°21' W 118°19'0 0.1
2017-Sep-12 16:00N 33°21' W 118°19'0 0.0
2017-Sep-12 15:30N 33°21' W 118°19'0 0.1
2017-Sep-12 15:00N 33°21' W 118°19'0 0.1
2017-Sep-12 14:31N 33°21' W 118°19'0 0.2
2017-Sep-12 14:00N 33°21' W 118°19'3 6.5
2017-Sep-12 13:30N 33°18' W 118°17'4 8.4
2017-Sep-12 13:00N 33°14' W 118°16'4 7.9
2017-Sep-12 12:30N 33°10' W 118°16'4 7.6
2017-Sep-12 12:00N 33°06' W 118°15'4 7.6
2017-Sep-12 11:30N 33°03' W 118°13'4 7.5
2017-Sep-12 11:00N 33°00' W 118°10'4 7.6
2017-Sep-12 10:30N 32°57' W 118°07'4 7.6
2017-Sep-12 10:01N 32°54' W 118°05'4 7.8
2017-Sep-12 09:31N 32°51' W 118°02'4 7.6
2017-Sep-12 09:00N 32°48' W 117°59'3 6.8
2017-Sep-12 08:30N 32°46' W 117°56'3 6.7
2017-Sep-12 08:00N 32°48' W 117°53'3 6.9
2017-Sep-12 07:30N 32°51' W 117°54'4 7.1
2017-Sep-12 07:00N 32°55' W 117°56'4 7.2
2017-Sep-12 06:30N 32°58' W 117°57'4 7.3
2017-Sep-12 06:00N 33°01' W 117°59'4 7.4
2017-Sep-12 05:30N 33°05' W 118°00'4 7.3
2017-Sep-12 05:00N 33°08' W 118°02'4 8.7
2017-Sep-12 04:30N 33°12' W 118°03'5 9.9
2017-Sep-12 04:00N 33°17' W 118°06'5 9.9
2017-Sep-12 03:30N 33°22' W 118°08'510.3
2017-Sep-12 03:00N 33°27' W 118°09'510.5
2017-Sep-12 02:30N 33°31' W 118°12'510.3
2017-Sep-12 02:00N 33°36' W 118°13'5 9.8
2017-Sep-12 01:30N 33°41' W 118°12'4 7.3
2017-Sep-12 00:59N 33°45' W 118°11'0 0.1
2017-Sep-12 00:29N 33°45' W 118°11'0 0.0
2017-Sep-11 23:59N 33°45' W 118°11'0 0.0
2017-Sep-11 23:29N 33°45' W 118°11'0 0.0
2017-Sep-11 22:58N 33°45' W 118°11'0 0.0
2017-Sep-11 22:25N 33°45' W 118°11'0 0.0
2017-Sep-11 21:58N 33°45' W 118°11'0 0.0
2017-Sep-11 21:28N 33°45' W 118°11'0 0.0
2017-Sep-11 21:00N 33°45' W 118°11'0 0.0
2017-Sep-11 20:30N 33°45' W 118°11'0 0.0
2017-Sep-11 20:00N 33°45' W 118°11'0 0.0
2017-Sep-11 19:30N 33°45' W 118°11'0 0.0
2017-Sep-11 19:00N 33°45' W 118°11'0 0.0
2017-Sep-11 18:29N 33°45' W 118°11'0 0.0
2017-Sep-11 17:59N 33°45' W 118°11'0 0.0
2017-Sep-11 17:29N 33°45' W 118°11'0 0.0
2017-Sep-11 16:50N 33°45' W 118°11'0 0.0
2017-Sep-11 16:29N 33°45' W 118°11'0 0.0
2017-Sep-11 15:58N 33°45' W 118°11'0 0.0
2017-Sep-11 15:28N 33°45' W 118°11'0 0.0
2017-Sep-11 14:58N 33°45' W 118°11'0 0.0
2017-Sep-11 14:28N 33°45' W 118°11'0 0.0
2017-Sep-11 14:00N 33°45' W 118°11'0 0.0
2017-Sep-11 13:21N 33°45' W 118°11'0 0.0
2017-Sep-11 13:00N 33°45' W 118°11'0 0.3
2017-Sep-11 12:30N 33°45' W 118°11'1 1.8
2017-Sep-11 12:00N 33°44' W 118°11'4 8.9
2017-Sep-11 11:30N 33°40' W 118°11'4 8.2
2017-Sep-11 11:00N 33°36' W 118°10'3 6.9
2017-Sep-11 10:30N 33°32' W 118°08'4 7.1
2017-Sep-11 10:00N 33°29' W 118°07'3 7.0
2017-Sep-11 09:30N 33°26' W 118°05'4 7.1
2017-Sep-11 09:00N 33°22' W 118°04'4 7.2
2017-Sep-11 08:30N 33°19' W 118°03'3 6.9
2017-Sep-11 08:00N 33°16' W 118°01'4 7.6
2017-Sep-11 07:30N 33°12' W 117°60'4 8.0
2017-Sep-11 07:00N 33°08' W 117°58'4 8.4
2017-Sep-11 06:30N 33°05' W 117°56'4 8.2
2017-Sep-11 06:00N 33°01' W 117°54'4 8.2
2017-Sep-11 05:30N 32°57' W 117°53'4 8.2
2017-Sep-11 05:00N 32°53' W 117°51'4 7.9
2017-Sep-11 04:30N 32°49' W 117°50'4 7.8
2017-Sep-11 04:00N 32°46' W 117°48'4 8.1
2017-Sep-11 03:30N 32°42' W 117°46'4 8.0
2017-Sep-11 03:00N 32°38' W 117°45'4 7.6
2017-Sep-11 02:30N 32°34' W 117°43'4 7.6
2017-Sep-11 02:00N 32°31' W 117°42'4 7.6
2017-Sep-11 01:30N 32°27' W 117°41'4 7.5
2017-Sep-11 01:00N 32°24' W 117°39'4 7.6
2017-Sep-11 00:30N 32°20' W 117°38'4 7.6
2017-Sep-11 00:00N 32°17' W 117°35'4 8.7
2017-Sep-10 23:30N 32°15' W 117°30'4 7.2
2017-Sep-10 23:00N 32°12' W 117°28'3 6.9
2017-Sep-10 22:30N 32°09' W 117°27'3 6.7
2017-Sep-10 22:00N 32°06' W 117°24'3 6.2
2017-Sep-10 21:30N 32°04' W 117°22'3 6.6
2017-Sep-10 21:00N 32°02' W 117°19'3 6.7
2017-Sep-10 20:30N 31°59' W 117°16'3 6.8
2017-Sep-10 20:00N 31°56' W 117°14'3 6.1
2017-Sep-10 19:30N 31°53' W 117°14'4 7.1
2017-Sep-10 19:00N 31°52' W 117°18'4 7.9
2017-Sep-10 18:30N 31°52' W 117°22'510.5
2017-Sep-10 18:00N 31°52' W 117°28'714.9
2017-Sep-10 17:30N 31°52' W 117°37'714.7
2017-Sep-10 17:00N 31°52' W 117°46'713.5
2017-Sep-10 16:30N 31°51' W 117°54'4 8.2
2017-Sep-10 16:00N 31°51' W 117°58'4 7.8
2017-Sep-10 15:30N 31°50' W 118°03'4 7.8
2017-Sep-10 15:00N 31°47' W 118°05'8 7.5
2017-Sep-10 14:00N 31°40' W 118°08'4270.7
2017-Sep-10 14:00N 31°36' W 118°06'3 7.1 330 / 121013.2 5.4 20.018.521.0
2017-Sep-10 13:30N 31°36' W 118°10'4 7.1
2017-Sep-10 13:00N 31°33' W 118°11'3 6.7
2017-Sep-10 12:30N 31°31' W 118°08'3 7.0
2017-Sep-10 12:00N 31°31' W 118°04'3 6.7
2017-Sep-10 11:30N 31°31' W 117°60'3 6.9
2017-Sep-10 11:00N 31°31' W 117°56'3 7.0
2017-Sep-10 10:30N 31°31' W 117°52'3 6.9
2017-Sep-10 10:00N 31°33' W 117°49'4 7.4
2017-Sep-10 09:30N 31°37' W 117°51'4 7.5
2017-Sep-10 09:00N 31°40' W 117°54'4 7.1
2017-Sep-10 08:30N 31°43' W 117°55'4 7.7
2017-Sep-10 08:00N 31°45' W 117°51'5 9.5
2017-Sep-10 07:30N 31°45' W 117°46'5 9.4
2017-Sep-10 07:00N 31°46' W 117°40'5 9.2
2017-Sep-10 06:30N 31°46' W 117°35'4 8.7
2017-Sep-10 06:00N 31°47' W 117°30'5 9.0
2017-Sep-10 05:30N 31°47' W 117°24'5 9.5
2017-Sep-10 05:00N 31°48' W 117°19'5 9.1
2017-Sep-10 04:30N 31°48' W 117°13'5 9.2
2017-Sep-10 04:00N 31°49' W 117°08'5 9.3
2017-Sep-10 03:30N 31°49' W 117°02'5 9.5
2017-Sep-10 02:59N 31°50' W 116°57'510.0
2017-Sep-10 02:30N 31°50' W 116°51'510.2
2017-Sep-10 01:59N 31°50' W 116°45'5 9.8
2017-Sep-10 01:30N 31°50' W 116°39'  

Dump ship's entire track history